sensor_id;sensor_type;location;lat;lon;timestamp;pressure;altitude;pressure_sealevel;temperature;humidity
21100;BME280;10708;50.824;4.408;2023-04-27T00:04:30;101021.03;;;5.73;100.00
21100;BME280;10708;50.824;4.408;2023-04-27T00:09:33;101021.97;;;5.65;100.00
21100;BME280;10708;50.824;4.408;2023-04-27T00:14:35;101024.59;;;5.60;100.00
21100;BME280;10708;50.824;4.408;2023-04-27T00:19:39;101022.03;;;5.55;100.00
21100;BME280;10708;50.824;4.408;2023-04-27T00:24:42;101019.47;;;5.49;100.00
21100;BME280;10708;50.824;4.408;2023-04-27T00:29:44;101003.84;;;5.42;100.00
21100;BME280;10708;50.824;4.408;2023-04-27T00:34:48;101006.50;;;5.39;100.00
21100;BME280;10708;50.824;4.408;2023-04-27T00:39:50;101015.19;;;5.41;100.00
21100;BME280;10708;50.824;4.408;2023-04-27T00:44:53;101018.72;;;5.32;100.00
21100;BME280;10708;50.824;4.408;2023-04-27T00:49:56;101017.91;;;5.27;100.00
21100;BME280;10708;50.824;4.408;2023-04-27T00:55:01;101020.53;;;5.19;100.00
21100;BME280;10708;50.824;4.408;2023-04-27T01:00:06;101012.75;;;5.16;100.00
21100;BME280;10708;50.824;4.408;2023-04-27T01:05:12;101004.94;;;5.10;100.00
21100;BME280;10708;50.824;4.408;2023-04-27T01:10:14;101007.59;;;5.07;100.00
21100;BME280;10708;50.824;4.408;2023-04-27T01:15:17;101007.59;;;5.04;100.00
21100;BME280;10708;50.824;4.408;2023-04-27T01:20:21;100998.97;;;4.98;100.00
21100;BME280;10708;50.824;4.408;2023-04-27T01:25:24;100992.88;;;4.94;100.00
21100;BME280;10708;50.824;4.408;2023-04-27T01:30:27;100997.22;;;4.94;100.00
21100;BME280;10708;50.824;4.408;2023-04-27T01:35:30;100998.97;;;4.92;100.00
21100;BME280;10708;50.824;4.408;2023-04-27T01:40:34;100992.03;;;4.89;100.00
21100;BME280;10708;50.824;4.408;2023-04-27T01:45:36;100996.41;;;4.87;100.00
21100;BME280;10708;50.824;4.408;2023-04-27T01:50:38;100993.81;;;4.86;100.00
21100;BME280;10708;50.824;4.408;2023-04-27T01:55:42;100986.88;;;4.78;100.00
21100;BME280;10708;50.824;4.408;2023-04-27T02:00:45;100984.28;;;4.77;100.00
21100;BME280;10708;50.824;4.408;2023-04-27T02:05:47;100985.16;;;4.74;100.00
21100;BME280;10708;50.824;4.408;2023-04-27T02:10:51;100984.34;;;4.68;100.00
21100;BME280;10708;50.824;4.408;2023-04-27T02:15:53;100971.31;;;4.63;100.00
21100;BME280;10708;50.824;4.408;2023-04-27T02:20:56;100973.09;;;4.55;100.00
21100;BME280;10708;50.824;4.408;2023-04-27T02:25:59;100978.31;;;4.51;100.00
21100;BME280;10708;50.824;4.408;2023-04-27T02:31:01;100980.94;;;4.44;100.00
21100;BME280;10708;50.824;4.408;2023-04-27T02:36:04;100968.78;;;4.40;100.00
21100;BME280;10708;50.824;4.408;2023-04-27T02:41:08;100986.22;;;4.35;100.00
21100;BME280;10708;50.824;4.408;2023-04-27T02:46:10;100978.38;;;4.29;100.00
21100;BME280;10708;50.824;4.408;2023-04-27T02:51:13;100976.69;;;4.28;100.00
21100;BME280;10708;50.824;4.408;2023-04-27T02:56:17;100968.84;;;4.24;100.00
21100;BME280;10708;50.824;4.408;2023-04-27T03:01:19;100981.91;;;4.22;100.00
21100;BME280;10708;50.824;4.408;2023-04-27T03:06:22;100974.09;;;4.16;100.00
21100;BME280;10708;50.824;4.408;2023-04-27T03:11:26;100991.50;;;4.14;100.00
21100;BME280;10708;50.824;4.408;2023-04-27T03:16:30;100983.69;;;4.08;100.00
21100;BME280;10708;50.824;4.408;2023-04-27T03:21:33;100991.50;;;4.05;100.00
21100;BME280;10708;50.824;4.408;2023-04-27T03:26:37;100988.94;;;3.97;100.00
21100;BME280;10708;50.824;4.408;2023-04-27T03:31:39;100991.53;;;3.91;100.00
21100;BME280;10708;50.824;4.408;2023-04-27T03:36:42;100994.16;;;3.85;100.00
21100;BME280;10708;50.824;4.408;2023-04-27T03:41:46;100995.03;;;3.84;100.00
21100;BME280;10708;50.824;4.408;2023-04-27T03:46:48;100993.31;;;3.79;100.00
21100;BME280;10708;50.824;4.408;2023-04-27T03:51:51;100993.31;;;3.77;100.00
21100;BME280;10708;50.824;4.408;2023-04-27T03:56:55;100993.31;;;3.74;100.00
21100;BME280;10708;50.824;4.408;2023-04-27T04:01:57;100994.16;;;3.71;100.00
21100;BME280;10708;50.824;4.408;2023-04-27T04:06:59;101001.13;;;3.72;100.00
21100;BME280;10708;50.824;4.408;2023-04-27T04:12:04;101006.31;;;3.72;100.00
21100;BME280;10708;50.824;4.408;2023-04-27T04:17:08;101002.84;;;3.72;100.00
21100;BME280;10708;50.824;4.408;2023-04-27T04:22:10;101005.44;;;3.80;100.00
21100;BME280;10708;50.824;4.408;2023-04-27T04:27:14;101004.56;;;3.84;100.00
21100;BME280;10708;50.824;4.408;2023-04-27T04:32:16;101000.22;;;3.83;100.00
21100;BME280;10708;50.824;4.408;2023-04-27T04:37:20;101005.44;;;3.84;100.00
21100;BME280;10708;50.824;4.408;2023-04-27T04:42:24;101005.47;;;3.89;100.00
21100;BME280;10708;50.824;4.408;2023-04-27T04:47:27;101010.63;;;3.92;100.00
21100;BME280;10708;50.824;4.408;2023-04-27T04:52:31;101010.66;;;3.98;100.00
21100;BME280;10708;50.824;4.408;2023-04-27T04:57:35;101012.38;;;4.06;100.00
21100;BME280;10708;50.824;4.408;2023-04-27T05:02:38;101010.59;;;4.13;100.00
21100;BME280;10708;50.824;4.408;2023-04-27T05:07:40;101010.56;;;4.22;100.00
21100;BME280;10708;50.824;4.408;2023-04-27T05:12:44;101015.75;;;4.36;100.00
21100;BME280;10708;50.824;4.408;2023-04-27T05:17:47;101031.34;;;4.51;100.00
21100;BME280;10708;50.824;4.408;2023-04-27T05:22:49;101035.66;;;4.67;100.00
21100;BME280;10708;50.824;4.408;2023-04-27T05:27:53;101044.25;;;4.83;100.00
21100;BME280;10708;50.824;4.408;2023-04-27T05:32:55;101044.19;;;4.98;100.00
21100;BME280;10708;50.824;4.408;2023-04-27T05:37:58;101040.63;;;5.11;100.00
21100;BME280;10708;50.824;4.408;2023-04-27T05:43:02;101047.50;;;5.26;100.00
21100;BME280;10708;50.824;4.408;2023-04-27T05:48:05;101037.00;;;5.35;100.00
21100;BME280;10708;50.824;4.408;2023-04-27T05:53:07;101031.72;;;5.43;100.00
21100;BME280;10708;50.824;4.408;2023-04-27T05:58:11;101026.41;;;5.53;100.00
21100;BME280;10708;50.824;4.408;2023-04-27T06:03:14;101035.03;;;5.63;100.00
21100;BME280;10708;50.824;4.408;2023-04-27T06:08:16;101041.06;;;5.74;100.00
21100;BME280;10708;50.824;4.408;2023-04-27T06:13:20;101042.69;;;5.86;100.00
21100;BME280;10708;50.824;4.408;2023-04-27T06:18:22;101041.78;;;5.95;100.00
21100;BME280;10708;50.824;4.408;2023-04-27T06:23:25;101038.97;;;6.16;100.00
21100;BME280;10708;50.824;4.408;2023-04-27T06:28:28;101042.16;;;6.41;100.00
21100;BME280;10708;50.824;4.408;2023-04-27T06:33:31;101038.41;;;6.64;100.00
21100;BME280;10708;50.824;4.408;2023-04-27T06:38:33;101037.28;;;6.84;100.00
21100;BME280;10708;50.824;4.408;2023-04-27T06:43:37;101036.13;;;7.04;100.00
21100;BME280;10708;50.824;4.408;2023-04-27T06:48:40;101034.13;;;7.22;100.00
21100;BME280;10708;50.824;4.408;2023-04-27T06:53:42;101032.03;;;7.45;100.00
21100;BME280;10708;50.824;4.408;2023-04-27T06:58:46;101025.66;;;7.61;100.00
21100;BME280;10708;50.824;4.408;2023-04-27T07:03:49;101016.50;;;7.88;100.00
21100;BME280;10708;50.824;4.408;2023-04-27T07:08:51;101005.72;;;8.03;100.00
21100;BME280;10708;50.824;4.408;2023-04-27T07:13:55;101007.47;;;8.91;100.00
21100;BME280;10708;50.824;4.408;2023-04-27T07:18:57;101000.03;;;10.16;100.00
21100;BME280;10708;50.824;4.408;2023-04-27T07:24:00;100992.63;;;11.99;100.00
21100;BME280;10708;50.824;4.408;2023-04-27T07:29:05;100997.03;;;12.71;100.00
21100;BME280;10708;50.824;4.408;2023-04-27T07:34:09;100994.34;;;13.18;100.00
21100;BME280;10708;50.824;4.408;2023-04-27T07:39:12;100994.09;;;13.67;100.00
21100;BME280;10708;50.824;4.408;2023-04-27T07:44:17;100983.03;;;14.59;100.00
21100;BME280;10708;50.824;4.408;2023-04-27T07:49:21;100986.81;;;15.10;100.00
21100;BME280;10708;50.824;4.408;2023-04-27T07:54:24;100980.13;;;15.92;100.00
21100;BME280;10708;50.824;4.408;2023-04-27T07:59:29;100981.34;;;16.19;100.00
21100;BME280;10708;50.824;4.408;2023-04-27T08:04:32;100977.34;;;16.28;100.00
21100;BME280;10708;50.824;4.408;2023-04-27T08:09:34;100975.88;;;15.88;100.00
21100;BME280;10708;50.824;4.408;2023-04-27T08:14:39;100977.06;;;15.65;100.00
21100;BME280;10708;50.824;4.408;2023-04-27T08:19:41;100980.94;;;14.47;100.00
21100;BME280;10708;50.824;4.408;2023-04-27T08:24:43;100977.34;;;14.08;100.00
21100;BME280;10708;50.824;4.408;2023-04-27T08:29:48;100973.13;;;14.03;100.00
21100;BME280;10708;50.824;4.408;2023-04-27T08:34:51;100964.09;;;14.48;100.00
21100;BME280;10708;50.824;4.408;2023-04-27T08:39:53;100970.34;;;14.47;100.00
21100;BME280;10708;50.824;4.408;2023-04-27T08:44:58;100970.53;;;14.43;100.00
21100;BME280;10708;50.824;4.408;2023-04-27T08:50:02;100974.81;;;13.86;100.00
21100;BME280;10708;50.824;4.408;2023-04-27T08:55:06;100965.13;;;14.64;100.00
21100;BME280;10708;50.824;4.408;2023-04-27T09:00:11;100955.03;;;14.72;100.00
21100;BME280;10708;50.824;4.408;2023-04-27T09:05:17;100965.75;;;14.51;100.00
21100;BME280;10708;50.824;4.408;2023-04-27T09:10:20;100960.63;;;14.66;100.00
21100;BME280;10708;50.824;4.408;2023-04-27T09:15:24;100953.53;;;14.86;100.00
21100;BME280;10708;50.824;4.408;2023-04-27T09:20:26;100970.38;;;14.85;100.00
21100;BME280;10708;50.824;4.408;2023-04-27T09:25:30;100967.34;;;14.73;100.00
21100;BME280;10708;50.824;4.408;2023-04-27T09:30:34;100978.63;;;14.19;100.00
21100;BME280;10708;50.824;4.408;2023-04-27T09:35:39;100969.75;;;14.40;100.00
21100;BME280;10708;50.824;4.408;2023-04-27T09:40:43;100954.59;;;14.44;100.00
21100;BME280;10708;50.824;4.408;2023-04-27T09:45:47;100949.16;;;14.85;100.00
21100;BME280;10708;50.824;4.408;2023-04-27T09:50:50;100964.75;;;14.91;100.00
21100;BME280;10708;50.824;4.408;2023-04-27T09:56:02;100957.44;;;15.14;100.00
21100;BME280;10708;50.824;4.408;2023-04-27T10:01:20;100928.44;;;14.74;100.00
21100;BME280;10708;50.824;4.408;2023-04-27T10:06:50;100938.63;;;14.46;100.00
21100;BME280;10708;50.824;4.408;2023-04-27T10:11:55;100932.81;;;14.94;100.00
21100;BME280;10708;50.824;4.408;2023-04-27T10:16:59;100928.88;;;15.73;100.00
21100;BME280;10708;50.824;4.408;2023-04-27T10:22:01;100932.09;;;15.26;100.00
21100;BME280;10708;50.824;4.408;2023-04-27T10:27:06;100924.59;;;15.17;100.00
21100;BME280;10708;50.824;4.408;2023-04-27T10:32:12;100917.69;;;14.96;100.00
21100;BME280;10708;50.824;4.408;2023-04-27T10:37:15;100923.78;;;14.79;100.00
21100;BME280;10708;50.824;4.408;2023-04-27T10:42:29;100914.47;;;14.52;98.83
21100;BME280;10708;50.824;4.408;2023-04-27T10:47:39;100903.56;;;14.39;100.00
21100;BME280;10708;50.824;4.408;2023-04-27T10:52:43;100898.44;;;14.55;99.90
21100;BME280;10708;50.824;4.408;2023-04-27T10:57:47;100888.53;;;14.58;97.28
21100;BME280;10708;50.824;4.408;2023-04-27T11:02:52;100901.91;;;14.36;96.96
21100;BME280;10708;50.824;4.408;2023-04-27T11:08:04;100903.09;;;13.90;98.10
21100;BME280;10708;50.824;4.408;2023-04-27T11:13:08;100888.59;;;13.79;99.57
21100;BME280;10708;50.824;4.408;2023-04-27T11:18:12;100894.59;;;13.63;97.16
21100;BME280;10708;50.824;4.408;2023-04-27T11:23:22;100892.25;;;13.36;97.61
21100;BME280;10708;50.824;4.408;2023-04-27T11:28:25;100876.06;;;13.43;100.00
21100;BME280;10708;50.824;4.408;2023-04-27T11:33:29;100870.34;;;13.10;98.18
21100;BME280;10708;50.824;4.408;2023-04-27T11:38:32;100875.78;;;13.07;99.39
21100;BME280;10708;50.824;4.408;2023-04-27T11:43:36;100883.78;;;13.27;98.07
21100;BME280;10708;50.824;4.408;2023-04-27T11:48:43;100866.91;;;13.08;98.40
21100;BME280;10708;50.824;4.408;2023-04-27T11:53:49;100864.03;;;12.92;98.42
21100;BME280;10708;50.824;4.408;2023-04-27T11:58:52;100856.53;;;13.04;99.95
21100;BME280;10708;50.824;4.408;2023-04-27T12:03:55;100849.50;;;13.03;98.83
21100;BME280;10708;50.824;4.408;2023-04-27T12:08:58;100852.03;;;13.06;96.86
21100;BME280;10708;50.824;4.408;2023-04-27T12:14:01;100852.38;;;12.76;96.48
21100;BME280;10708;50.824;4.408;2023-04-27T12:19:05;100862.25;;;12.93;95.71
21100;BME280;10708;50.824;4.408;2023-04-27T12:24:08;100841.84;;;12.97;94.74
21100;BME280;10708;50.824;4.408;2023-04-27T12:29:10;100818.88;;;13.19;98.55
21100;BME280;10708;50.824;4.408;2023-04-27T12:34:14;100819.25;;;13.10;98.25
21100;BME280;10708;50.824;4.408;2023-04-27T12:39:18;100822.34;;;12.99;96.34
21100;BME280;10708;50.824;4.408;2023-04-27T12:44:20;100808.72;;;13.08;97.37
21100;BME280;10708;50.824;4.408;2023-04-27T12:49:24;100819.75;;;13.40;99.14
21100;BME280;10708;50.824;4.408;2023-04-27T12:54:27;100815.81;;;13.68;99.81
21100;BME280;10708;50.824;4.408;2023-04-27T12:59:29;100817.44;;;13.73;98.16
21100;BME280;10708;50.824;4.408;2023-04-27T13:04:33;100808.00;;;13.47;95.26
21100;BME280;10708;50.824;4.408;2023-04-27T13:09:35;100797.00;;;13.56;98.12
21100;BME280;10708;50.824;4.408;2023-04-27T13:14:38;100779.38;;;13.75;98.11
21100;BME280;10708;50.824;4.408;2023-04-27T13:19:43;100776.31;;;13.84;96.01
21100;BME280;10708;50.824;4.408;2023-04-27T13:24:45;100762.34;;;13.99;95.64
21100;BME280;10708;50.824;4.408;2023-04-27T13:29:48;100753.03;;;14.10;94.40
21100;BME280;10708;50.824;4.408;2023-04-27T13:34:52;100752.03;;;14.12;93.61
21100;BME280;10708;50.824;4.408;2023-04-27T13:39:54;100750.47;;;14.08;93.13
21100;BME280;10708;50.824;4.408;2023-04-27T13:44:57;100742.94;;;14.36;97.54
21100;BME280;10708;50.824;4.408;2023-04-27T13:50:01;100752.19;;;14.47;94.01
21100;BME280;10708;50.824;4.408;2023-04-27T13:55:05;100756.44;;;15.02;100.00
21100;BME280;10708;50.824;4.408;2023-04-27T14:00:09;100752.25;;;15.48;100.00
21100;BME280;10708;50.824;4.408;2023-04-27T14:05:14;100755.06;;;15.63;100.00
21100;BME280;10708;50.824;4.408;2023-04-27T14:10:16;100742.75;;;15.77;100.00
21100;BME280;10708;50.824;4.408;2023-04-27T14:15:19;100732.06;;;15.46;95.14
21100;BME280;10708;50.824;4.408;2023-04-27T14:20:23;100723.28;;;15.11;94.62
21100;BME280;10708;50.824;4.408;2023-04-27T14:25:27;100718.22;;;15.06;99.57
21100;BME280;10708;50.824;4.408;2023-04-27T14:30:33;100718.91;;;15.10;99.71
21100;BME280;10708;50.824;4.408;2023-04-27T14:35:37;100713.31;;;15.16;98.19
21100;BME280;10708;50.824;4.408;2023-04-27T14:40:39;100703.00;;;15.10;94.15
21100;BME280;10708;50.824;4.408;2023-04-27T14:45:42;100711.41;;;15.18;98.67
21100;BME280;10708;50.824;4.408;2023-04-27T14:50:46;100706.00;;;15.54;100.00
21100;BME280;10708;50.824;4.408;2023-04-27T14:55:48;100706.97;;;15.51;94.05
21100;BME280;10708;50.824;4.408;2023-04-27T15:00:51;100696.91;;;15.25;94.62
21100;BME280;10708;50.824;4.408;2023-04-27T15:05:55;100694.59;;;15.02;93.33
21100;BME280;10708;50.824;4.408;2023-04-27T15:10:58;100693.94;;;15.14;95.61
21100;BME280;10708;50.824;4.408;2023-04-27T15:16:00;100692.47;;;15.41;100.00
21100;BME280;10708;50.824;4.408;2023-04-27T15:21:06;100684.06;;;15.33;97.31
21100;BME280;10708;50.824;4.408;2023-04-27T15:26:08;100680.63;;;15.16;94.88
21100;BME280;10708;50.824;4.408;2023-04-27T15:31:10;100663.13;;;15.11;95.63
21100;BME280;10708;50.824;4.408;2023-04-27T15:36:14;100661.19;;;15.15;96.70
21100;BME280;10708;50.824;4.408;2023-04-27T15:41:17;100647.72;;;15.18;95.51
21100;BME280;10708;50.824;4.408;2023-04-27T15:46:20;100639.66;;;15.04;96.28
21100;BME280;10708;50.824;4.408;2023-04-27T15:51:24;100628.81;;;15.08;98.39
21100;BME280;10708;50.824;4.408;2023-04-27T15:56:26;100626.91;;;14.95;99.06
21100;BME280;10708;50.824;4.408;2023-04-27T16:01:28;100633.22;;;14.92;98.46
21100;BME280;10708;50.824;4.408;2023-04-27T16:06:34;100616.94;;;14.83;99.07
21100;BME280;10708;50.824;4.408;2023-04-27T16:11:36;100616.22;;;14.79;98.46
21100;BME280;10708;50.824;4.408;2023-04-27T16:16:39;100612.06;;;14.91;99.98
21100;BME280;10708;50.824;4.408;2023-04-27T16:21:43;100595.19;;;15.09;100.00
21100;BME280;10708;50.824;4.408;2023-04-27T16:26:47;100577.91;;;15.18;100.00
21100;BME280;10708;50.824;4.408;2023-04-27T16:31:49;100580.53;;;15.02;100.00
21100;BME280;10708;50.824;4.408;2023-04-27T16:36:53;100583.72;;;15.08;100.00
21100;BME280;10708;50.824;4.408;2023-04-27T16:41:56;100582.91;;;14.91;100.00
21100;BME280;10708;50.824;4.408;2023-04-27T16:46:58;100575.81;;;14.91;100.00
21100;BME280;10708;50.824;4.408;2023-04-27T16:52:02;100557.50;;;14.87;100.00
21100;BME280;10708;50.824;4.408;2023-04-27T16:57:05;100557.03;;;14.78;100.00
21100;BME280;10708;50.824;4.408;2023-04-27T17:02:07;100547.00;;;14.68;100.00
21100;BME280;10708;50.824;4.408;2023-04-27T17:07:11;100545.31;;;14.50;100.00
21100;BME280;10708;50.824;4.408;2023-04-27T17:12:13;100524.69;;;14.39;100.00
21100;BME280;10708;50.824;4.408;2023-04-27T17:17:16;100543.00;;;14.26;100.00
21100;BME280;10708;50.824;4.408;2023-04-27T17:22:20;100537.31;;;14.17;100.00
21100;BME280;10708;50.824;4.408;2023-04-27T17:27:23;100523.69;;;14.07;100.00
21100;BME280;10708;50.824;4.408;2023-04-27T17:32:25;100532.16;;;13.96;100.00
21100;BME280;10708;50.824;4.408;2023-04-27T17:37:29;100539.38;;;13.93;100.00
21100;BME280;10708;50.824;4.408;2023-04-27T17:42:31;100550.31;;;14.04;100.00
21100;BME280;10708;50.824;4.408;2023-04-27T17:47:33;100541.34;;;14.07;100.00
21100;BME280;10708;50.824;4.408;2023-04-27T17:52:37;100538.38;;;13.95;100.00
21100;BME280;10708;50.824;4.408;2023-04-27T17:57:40;100539.78;;;13.85;100.00
21100;BME280;10708;50.824;4.408;2023-04-27T18:02:45;100549.16;;;13.74;100.00
21100;BME280;10708;50.824;4.408;2023-04-27T18:08:02;100549.63;;;13.64;100.00
21100;BME280;10708;50.824;4.408;2023-04-27T18:13:05;100543.75;;;13.58;100.00
21100;BME280;10708;50.824;4.408;2023-04-27T18:18:07;100552.00;;;13.52;100.00
21100;BME280;10708;50.824;4.408;2023-04-27T18:23:12;100569.09;;;13.45;100.00
21100;BME280;10708;50.824;4.408;2023-04-27T18:28:14;100552.50;;;13.41;100.00
21100;BME280;10708;50.824;4.408;2023-04-27T18:33:19;100551.03;;;13.36;100.00
21100;BME280;10708;50.824;4.408;2023-04-27T18:38:23;100553.00;;;13.30;100.00
21100;BME280;10708;50.824;4.408;2023-04-27T18:43:26;100553.19;;;13.27;100.00
21100;BME280;10708;50.824;4.408;2023-04-27T18:48:29;100538.44;;;13.22;100.00
21100;BME280;10708;50.824;4.408;2023-04-27T18:53:33;100534.31;;;13.16;100.00
21100;BME280;10708;50.824;4.408;2023-04-27T18:58:35;100537.94;;;13.14;100.00
21100;BME280;10708;50.824;4.408;2023-04-27T19:03:37;100536.31;;;13.10;100.00
21100;BME280;10708;50.824;4.408;2023-04-27T19:08:42;100527.69;;;13.06;100.00
21100;BME280;10708;50.824;4.408;2023-04-27T19:13:45;100527.91;;;13.02;100.00
21100;BME280;10708;50.824;4.408;2023-04-27T19:18:59;100524.53;;;12.98;100.00
21100;BME280;10708;50.824;4.408;2023-04-27T19:24:06;100523.03;;;12.92;100.00
21100;BME280;10708;50.824;4.408;2023-04-27T19:29:10;100521.38;;;12.90;100.00
21100;BME280;10708;50.824;4.408;2023-04-27T19:34:13;100520.59;;;12.88;100.00
21100;BME280;10708;50.824;4.408;2023-04-27T19:39:18;100516.41;;;12.84;100.00
21100;BME280;10708;50.824;4.408;2023-04-27T19:44:21;100519.16;;;12.81;100.00
21100;BME280;10708;50.824;4.408;2023-04-27T19:49:23;100521.81;;;12.81;100.00
21100;BME280;10708;50.824;4.408;2023-04-27T19:54:27;100514.88;;;12.78;100.00
21100;BME280;10708;50.824;4.408;2023-04-27T19:59:30;100512.44;;;12.74;100.00
21100;BME280;10708;50.824;4.408;2023-04-27T20:04:32;100527.56;;;12.70;100.00
21100;BME280;10708;50.824;4.408;2023-04-27T20:09:36;100522.50;;;12.66;100.00
21100;BME280;10708;50.824;4.408;2023-04-27T20:14:38;100511.34;;;12.59;100.00
21100;BME280;10708;50.824;4.408;2023-04-27T20:19:42;100501.97;;;12.52;100.00
21100;BME280;10708;50.824;4.408;2023-04-27T20:24:47;100509.19;;;12.48;100.00
21100;BME280;10708;50.824;4.408;2023-04-27T20:29:49;100500.56;;;12.45;100.00
21100;BME280;10708;50.824;4.408;2023-04-27T20:34:52;100478.97;;;12.35;100.00
21100;BME280;10708;50.824;4.408;2023-04-27T20:39:56;100456.03;;;12.17;100.00
21100;BME280;10708;50.824;4.408;2023-04-27T20:44:59;100463.63;;;12.04;100.00
21100;BME280;10708;50.824;4.408;2023-04-27T20:50:03;100438.47;;;11.96;100.00
21100;BME280;10708;50.824;4.408;2023-04-27T20:55:08;100436.88;;;11.92;100.00
21100;BME280;10708;50.824;4.408;2023-04-27T21:00:11;100440.44;;;11.91;100.00
21100;BME280;10708;50.824;4.408;2023-04-27T21:05:15;100440.38;;;11.92;100.00
21100;BME280;10708;50.824;4.408;2023-04-27T21:10:19;100430.81;;;11.90;100.00
21100;BME280;10708;50.824;4.408;2023-04-27T21:15:22;100423.44;;;11.77;100.00
21100;BME280;10708;50.824;4.408;2023-04-27T21:20:24;100427.53;;;11.63;100.00
21100;BME280;10708;50.824;4.408;2023-04-27T21:25:28;100405.84;;;11.56;100.00
21100;BME280;10708;50.824;4.408;2023-04-27T21:30:30;100394.91;;;11.45;100.00
21100;BME280;10708;50.824;4.408;2023-04-27T21:35:33;100388.22;;;11.36;100.00
21100;BME280;10708;50.824;4.408;2023-04-27T21:40:36;100381.47;;;11.29;100.00
21100;BME280;10708;50.824;4.408;2023-04-27T21:45:39;100379.69;;;11.30;100.00
21100;BME280;10708;50.824;4.408;2023-04-27T21:50:43;100372.59;;;11.32;100.00
21100;BME280;10708;50.824;4.408;2023-04-27T21:55:47;100348.75;;;11.35;100.00
21100;BME280;10708;50.824;4.408;2023-04-27T22:00:51;100341.81;;;11.32;100.00
21100;BME280;10708;50.824;4.408;2023-04-27T22:05:53;100327.84;;;11.30;100.00
21100;BME280;10708;50.824;4.408;2023-04-27T22:10:58;100331.38;;;11.29;100.00
21100;BME280;10708;50.824;4.408;2023-04-27T22:16:01;100329.59;;;11.30;100.00
21100;BME280;10708;50.824;4.408;2023-04-27T22:21:03;100341.88;;;11.31;100.00
21100;BME280;10708;50.824;4.408;2023-04-27T22:26:07;100321.63;;;11.31;100.00
21100;BME280;10708;50.824;4.408;2023-04-27T22:31:09;100313.72;;;11.31;100.00
21100;BME280;10708;50.824;4.408;2023-04-27T22:36:12;100308.47;;;11.31;100.00
21100;BME280;10708;50.824;4.408;2023-04-27T22:41:16;100300.50;;;11.33;100.00
21100;BME280;10708;50.824;4.408;2023-04-27T22:46:19;100299.50;;;11.35;100.00
21100;BME280;10708;50.824;4.408;2023-04-27T22:51:23;100288.97;;;11.35;100.00
21100;BME280;10708;50.824;4.408;2023-04-27T22:56:28;100297.56;;;11.39;100.00
21100;BME280;10708;50.824;4.408;2023-04-27T23:01:31;100301.13;;;11.38;100.00
21100;BME280;10708;50.824;4.408;2023-04-27T23:06:33;100295.78;;;11.39;100.00
21100;BME280;10708;50.824;4.408;2023-04-27T23:11:37;100285.13;;;11.42;100.00
21100;BME280;10708;50.824;4.408;2023-04-27T23:16:40;100288.56;;;11.44;100.00
21100;BME280;10708;50.824;4.408;2023-04-27T23:21:42;100291.06;;;11.48;100.00
21100;BME280;10708;50.824;4.408;2023-04-27T23:26:45;100298.25;;;11.44;100.00
21100;BME280;10708;50.824;4.408;2023-04-27T23:31:48;100312.88;;;11.31;100.00
21100;BME280;10708;50.824;4.408;2023-04-27T23:36:50;100314.09;;;11.02;100.00
21100;BME280;10708;50.824;4.408;2023-04-27T23:41:53;100323.31;;;10.70;100.00
21100;BME280;10708;50.824;4.408;2023-04-27T23:46:56;100299.19;;;10.37;100.00
21100;BME280;10708;50.824;4.408;2023-04-27T23:51:58;100279.19;;;10.08;100.00
21100;BME280;10708;50.824;4.408;2023-04-27T23:57:02;100245.03;;;9.85;100.00
